sensor_id;sensor_type;location;lat;lon;timestamp;pressure;altitude;pressure_sealevel;temperature
71649;BMP180;59492;45.638;11.714;2023-03-01T00:00:12;101535.20;;;18.20
71649;BMP180;59492;45.638;11.714;2023-03-01T00:02:38;101534.00;;;18.20
71649;BMP180;59492;45.638;11.714;2023-03-01T00:05:04;101531.00;;;18.20
71649;BMP180;59492;45.638;11.714;2023-03-01T00:07:30;101522.00;;;18.20
71649;BMP180;59492;45.638;11.714;2023-03-01T00:09:55;101514.00;;;18.20
71649;BMP180;59492;45.638;11.714;2023-03-01T00:12:21;101512.80;;;18.20
71649;BMP180;59492;45.638;11.714;2023-03-01T00:14:46;101509.00;;;18.16
71649;BMP180;59492;45.638;11.714;2023-03-01T00:17:12;101510.80;;;18.14
71649;BMP180;59492;45.638;11.714;2023-03-01T00:19:37;101505.80;;;18.12
71649;BMP180;59492;45.638;11.714;2023-03-01T00:22:03;101508.40;;;18.14
71649;BMP180;59492;45.638;11.714;2023-03-01T00:24:28;101504.40;;;18.10
71649;BMP180;59492;45.638;11.714;2023-03-01T00:26:54;101502.60;;;18.10
71649;BMP180;59492;45.638;11.714;2023-03-01T00:29:22;101502.40;;;18.10
71649;BMP180;59492;45.638;11.714;2023-03-01T00:31:48;101502.20;;;18.10
71649;BMP180;59492;45.638;11.714;2023-03-01T00:34:14;101500.80;;;18.10
71649;BMP180;59492;45.638;11.714;2023-03-01T00:36:39;101499.80;;;18.10
71649;BMP180;59492;45.638;11.714;2023-03-01T00:39:11;101505.60;;;18.10
71649;BMP180;59492;45.638;11.714;2023-03-01T00:41:37;101506.40;;;18.10
71649;BMP180;59492;45.638;11.714;2023-03-01T00:44:03;101505.00;;;18.10
71649;BMP180;59492;45.638;11.714;2023-03-01T00:46:28;101500.40;;;18.10
71649;BMP180;59492;45.638;11.714;2023-03-01T00:48:55;101491.40;;;18.08
71649;BMP180;59492;45.638;11.714;2023-03-01T00:51:26;101494.60;;;18.06
71649;BMP180;59492;45.638;11.714;2023-03-01T00:53:54;101489.60;;;18.04
71649;BMP180;59492;45.638;11.714;2023-03-01T00:56:20;101480.60;;;18.00
71649;BMP180;59492;45.638;11.714;2023-03-01T00:58:46;101477.00;;;18.00
71649;BMP180;59492;45.638;11.714;2023-03-01T01:01:15;101477.40;;;18.00
71649;BMP180;59492;45.638;11.714;2023-03-01T01:03:49;101472.40;;;18.00
71649;BMP180;59492;45.638;11.714;2023-03-01T01:06:29;101472.40;;;18.00
71649;BMP180;59492;45.638;11.714;2023-03-01T01:08:55;101464.00;;;17.98
71649;BMP180;59492;45.638;11.714;2023-03-01T01:11:24;101458.40;;;18.00
71649;BMP180;59492;45.638;11.714;2023-03-01T01:13:50;101458.40;;;18.00
71649;BMP180;59492;45.638;11.714;2023-03-01T01:16:20;101456.00;;;18.00
71649;BMP180;59492;45.638;11.714;2023-03-01T01:18:46;101449.40;;;17.98
71649;BMP180;59492;45.638;11.714;2023-03-01T01:21:15;101438.40;;;17.96
71649;BMP180;59492;45.638;11.714;2023-03-01T01:23:41;101439.20;;;17.98
71649;BMP180;59492;45.638;11.714;2023-03-01T01:26:10;101433.80;;;17.94
71649;BMP180;59492;45.638;11.714;2023-03-01T01:28:36;101428.80;;;17.92
71649;BMP180;59492;45.638;11.714;2023-03-01T01:31:03;101421.00;;;17.92
71649;BMP180;59492;45.638;11.714;2023-03-01T01:33:29;101418.60;;;17.90
71649;BMP180;59492;45.638;11.714;2023-03-01T01:35:54;101417.40;;;17.90
71649;BMP180;59492;45.638;11.714;2023-03-01T01:38:20;101413.80;;;17.90
71649;BMP180;59492;45.638;11.714;2023-03-01T01:40:47;101410.00;;;17.90
71649;BMP180;59492;45.638;11.714;2023-03-01T01:45:44;101403.00;;;17.90
71649;BMP180;59492;45.638;11.714;2023-03-01T01:48:18;101393.60;;;17.90
71649;BMP180;59492;45.638;11.714;2023-03-01T01:50:44;101387.00;;;17.90
71649;BMP180;59492;45.638;11.714;2023-03-01T01:53:17;101381.60;;;17.90
71649;BMP180;59492;45.638;11.714;2023-03-01T01:55:46;101384.40;;;17.88
71649;BMP180;59492;45.638;11.714;2023-03-01T01:58:15;101379.80;;;17.88
71649;BMP180;59492;45.638;11.714;2023-03-01T02:00:43;101378.20;;;17.84
71649;BMP180;59492;45.638;11.714;2023-03-01T02:03:11;101378.60;;;17.84
71649;BMP180;59492;45.638;11.714;2023-03-01T02:08:27;101366.20;;;17.80
71649;BMP180;59492;45.638;11.714;2023-03-01T02:10:56;101369.00;;;17.80
71649;BMP180;59492;45.638;11.714;2023-03-01T02:13:22;101369.00;;;17.80
71649;BMP180;59492;45.638;11.714;2023-03-01T02:15:48;101369.80;;;17.80
71649;BMP180;59492;45.638;11.714;2023-03-01T02:18:17;101361.80;;;17.80
71649;BMP180;59492;45.638;11.714;2023-03-01T02:21:36;101355.00;;;17.80
71649;BMP180;59492;45.638;11.714;2023-03-01T02:23:54;101351.20;;;17.70
71649;BMP180;59492;45.638;11.714;2023-03-01T02:26:33;101348.40;;;17.78
71649;BMP180;59492;45.638;11.714;2023-03-01T02:29:02;101345.00;;;17.76
71649;BMP180;59492;45.638;11.714;2023-03-01T02:31:28;101343.60;;;17.76
71649;BMP180;59492;45.638;11.714;2023-03-01T02:36:48;101334.00;;;17.76
71649;BMP180;59492;45.638;11.714;2023-03-01T02:39:19;101328.20;;;17.70
71649;BMP180;59492;45.638;11.714;2023-03-01T02:41:50;101326.60;;;17.70
71649;BMP180;59492;45.638;11.714;2023-03-01T02:44:17;101321.60;;;17.70
71649;BMP180;59492;45.638;11.714;2023-03-01T02:46:46;101321.80;;;17.70
71649;BMP180;59492;45.638;11.714;2023-03-01T02:49:20;101319.60;;;17.70
71649;BMP180;59492;45.638;11.714;2023-03-01T02:57:22;101303.40;;;17.70
71649;BMP180;59492;45.638;11.714;2023-03-01T02:59:50;101297.40;;;17.70
71649;BMP180;59492;45.638;11.714;2023-03-01T03:02:28;101296.00;;;17.70
71649;BMP180;59492;45.638;11.714;2023-03-01T03:05:06;101288.40;;;17.66
71649;BMP180;59492;45.638;11.714;2023-03-01T03:07:35;101284.20;;;17.66
71649;BMP180;59492;45.638;11.714;2023-03-01T03:10:03;101282.60;;;17.68
71649;BMP180;59492;45.638;11.714;2023-03-01T03:12:29;101284.60;;;17.66
71649;BMP180;59492;45.638;11.714;2023-03-01T03:14:54;101280.40;;;17.68
71649;BMP180;59492;45.638;11.714;2023-03-01T03:17:20;101274.20;;;17.66
71649;BMP180;59492;45.638;11.714;2023-03-01T03:19:45;101277.80;;;17.60
71649;BMP180;59492;45.638;11.714;2023-03-01T03:22:12;101274.40;;;17.64
71649;BMP180;59492;45.638;11.714;2023-03-01T03:24:38;101267.00;;;17.70
71649;BMP180;59492;45.638;11.714;2023-03-01T03:27:04;101268.80;;;17.70
71649;BMP180;59492;45.638;11.714;2023-03-01T03:29:30;101265.40;;;17.70
71649;BMP180;59492;45.638;11.714;2023-03-01T03:31:56;101264.20;;;17.70
71649;BMP180;59492;45.638;11.714;2023-03-01T03:34:22;101263.60;;;17.70
71649;BMP180;59492;45.638;11.714;2023-03-01T03:36:53;101261.80;;;17.70
71649;BMP180;59492;45.638;11.714;2023-03-01T03:39:23;101257.60;;;17.70
71649;BMP180;59492;45.638;11.714;2023-03-01T03:41:49;101259.60;;;17.70
71649;BMP180;59492;45.638;11.714;2023-03-01T03:44:14;101251.80;;;17.68
71649;BMP180;59492;45.638;11.714;2023-03-01T03:46:40;101250.00;;;17.68
71649;BMP180;59492;45.638;11.714;2023-03-01T03:49:05;101248.80;;;17.68
71649;BMP180;59492;45.638;11.714;2023-03-01T03:51:31;101247.20;;;17.66
71649;BMP180;59492;45.638;11.714;2023-03-01T03:53:57;101242.60;;;17.66
71649;BMP180;59492;45.638;11.714;2023-03-01T03:56:22;101250.00;;;17.60
71649;BMP180;59492;45.638;11.714;2023-03-01T03:58:52;101257.40;;;17.60
71649;BMP180;59492;45.638;11.714;2023-03-01T04:01:17;101251.20;;;17.60
71649;BMP180;59492;45.638;11.714;2023-03-01T04:03:43;101244.40;;;17.60
71649;BMP180;59492;45.638;11.714;2023-03-01T04:06:12;101238.60;;;17.60
71649;BMP180;59492;45.638;11.714;2023-03-01T04:08:38;101236.20;;;17.60
71649;BMP180;59492;45.638;11.714;2023-03-01T04:11:05;101228.00;;;17.60
71649;BMP180;59492;45.638;11.714;2023-03-01T04:13:50;101224.80;;;17.56
71649;BMP180;59492;45.638;11.714;2023-03-01T04:16:16;101227.00;;;17.60
71649;BMP180;59492;45.638;11.714;2023-03-01T04:18:43;101217.20;;;17.58
71649;BMP180;59492;45.638;11.714;2023-03-01T04:21:09;101221.80;;;17.58
71649;BMP180;59492;45.638;11.714;2023-03-01T04:23:35;101230.80;;;17.56
71649;BMP180;59492;45.638;11.714;2023-03-01T04:26:01;101228.80;;;17.52
71649;BMP180;59492;45.638;11.714;2023-03-01T04:28:31;101226.60;;;17.50
71649;BMP180;59492;45.638;11.714;2023-03-01T04:31:10;101229.80;;;17.50
71649;BMP180;59492;45.638;11.714;2023-03-01T04:33:42;101227.20;;;17.50
71649;BMP180;59492;45.638;11.714;2023-03-01T04:36:09;101222.60;;;17.50
71649;BMP180;59492;45.638;11.714;2023-03-01T04:38:37;101221.60;;;17.50
71649;BMP180;59492;45.638;11.714;2023-03-01T04:41:08;101226.00;;;17.50
71649;BMP180;59492;45.638;11.714;2023-03-01T04:43:34;101217.60;;;17.50
71649;BMP180;59492;45.638;11.714;2023-03-01T04:46:04;101217.00;;;17.50
71649;BMP180;59492;45.638;11.714;2023-03-01T04:48:32;101215.60;;;17.50
71649;BMP180;59492;45.638;11.714;2023-03-01T04:50:59;101215.20;;;17.50
71649;BMP180;59492;45.638;11.714;2023-03-01T04:53:25;101218.60;;;17.48
71649;BMP180;59492;45.638;11.714;2023-03-01T04:55:51;101219.80;;;17.46
71649;BMP180;59492;45.638;11.714;2023-03-01T04:58:17;101224.80;;;17.48
71649;BMP180;59492;45.638;11.714;2023-03-01T05:00:42;101223.80;;;17.44
71649;BMP180;59492;45.638;11.714;2023-03-01T05:03:08;101222.20;;;17.44
71649;BMP180;59492;45.638;11.714;2023-03-01T05:05:39;101226.00;;;17.40
71649;BMP180;59492;45.638;11.714;2023-03-01T05:08:07;101227.60;;;17.40
71649;BMP180;59492;45.638;11.714;2023-03-01T05:10:35;101225.80;;;17.40
71649;BMP180;59492;45.638;11.714;2023-03-01T05:13:02;101225.80;;;17.40
71649;BMP180;59492;45.638;11.714;2023-03-01T05:15:30;101228.20;;;17.40
71649;BMP180;59492;45.638;11.714;2023-03-01T05:17:57;101222.80;;;17.40
71649;BMP180;59492;45.638;11.714;2023-03-01T05:20:25;101220.00;;;17.40
71649;BMP180;59492;45.638;11.714;2023-03-01T05:22:55;101207.80;;;17.40
71649;BMP180;59492;45.638;11.714;2023-03-01T05:25:20;101211.80;;;17.38
71649;BMP180;59492;45.638;11.714;2023-03-01T05:27:47;101214.00;;;17.40
71649;BMP180;59492;45.638;11.714;2023-03-01T05:30:13;101219.20;;;17.40
71649;BMP180;59492;45.638;11.714;2023-03-01T05:32:44;101222.60;;;17.38
71649;BMP180;59492;45.638;11.714;2023-03-01T05:35:15;101220.00;;;17.36
71649;BMP180;59492;45.638;11.714;2023-03-01T05:37:47;101219.80;;;17.32
71649;BMP180;59492;45.638;11.714;2023-03-01T05:40:16;101211.40;;;17.32
71649;BMP180;59492;45.638;11.714;2023-03-01T05:42:48;101211.80;;;17.30
71649;BMP180;59492;45.638;11.714;2023-03-01T05:45:15;101208.40;;;17.30
71649;BMP180;59492;45.638;11.714;2023-03-01T05:47:43;101207.80;;;17.30
71649;BMP180;59492;45.638;11.714;2023-03-01T05:50:14;101206.40;;;17.30
71649;BMP180;59492;45.638;11.714;2023-03-01T05:52:49;101205.80;;;17.30
71649;BMP180;59492;45.638;11.714;2023-03-01T05:55:20;101204.80;;;17.30
71649;BMP180;59492;45.638;11.714;2023-03-01T05:57:46;101198.60;;;17.30
71649;BMP180;59492;45.638;11.714;2023-03-01T06:00:13;101193.80;;;17.30
71649;BMP180;59492;45.638;11.714;2023-03-01T06:02:40;101208.20;;;17.30
71649;BMP180;59492;45.638;11.714;2023-03-01T06:05:08;101214.20;;;17.30
71649;BMP180;59492;45.638;11.714;2023-03-01T06:07:34;101211.00;;;17.30
71649;BMP180;59492;45.638;11.714;2023-03-01T06:10:00;101210.20;;;17.30
71649;BMP180;59492;45.638;11.714;2023-03-01T06:12:26;101208.60;;;17.30
71649;BMP180;59492;45.638;11.714;2023-03-01T06:14:51;101206.60;;;17.30
71649;BMP180;59492;45.638;11.714;2023-03-01T06:17:17;101210.80;;;17.30
71649;BMP180;59492;45.638;11.714;2023-03-01T06:19:42;101206.60;;;17.30
71649;BMP180;59492;45.638;11.714;2023-03-01T06:22:08;101200.20;;;17.30
71649;BMP180;59492;45.638;11.714;2023-03-01T06:24:34;101195.00;;;17.30
71649;BMP180;59492;45.638;11.714;2023-03-01T06:26:59;101198.40;;;17.28
71649;BMP180;59492;45.638;11.714;2023-03-01T06:29:25;101202.40;;;17.30
71649;BMP180;59492;45.638;11.714;2023-03-01T06:31:51;101199.60;;;17.30
71649;BMP180;59492;45.638;11.714;2023-03-01T06:34:16;101194.40;;;17.30
71649;BMP180;59492;45.638;11.714;2023-03-01T06:36:42;101190.80;;;17.30
71649;BMP180;59492;45.638;11.714;2023-03-01T06:39:07;101202.00;;;17.30
71649;BMP180;59492;45.638;11.714;2023-03-01T06:41:33;101201.80;;;17.30
71649;BMP180;59492;45.638;11.714;2023-03-01T06:43:59;101197.80;;;17.30
71649;BMP180;59492;45.638;11.714;2023-03-01T06:46:25;101196.40;;;17.30
71649;BMP180;59492;45.638;11.714;2023-03-01T06:48:51;101194.00;;;17.30
71649;BMP180;59492;45.638;11.714;2023-03-01T06:51:16;101195.40;;;17.30
71649;BMP180;59492;45.638;11.714;2023-03-01T06:53:42;101196.80;;;17.30
71649;BMP180;59492;45.638;11.714;2023-03-01T06:56:07;101194.00;;;17.30
71649;BMP180;59492;45.638;11.714;2023-03-01T06:58:33;101196.20;;;17.30
71649;BMP180;59492;45.638;11.714;2023-03-01T07:00:58;101194.20;;;17.30
71649;BMP180;59492;45.638;11.714;2023-03-01T07:03:24;101197.40;;;17.30
71649;BMP180;59492;45.638;11.714;2023-03-01T07:05:50;101196.60;;;17.30
71649;BMP180;59492;45.638;11.714;2023-03-01T07:08:18;101202.00;;;17.30
71649;BMP180;59492;45.638;11.714;2023-03-01T07:10:44;101200.20;;;17.28
71649;BMP180;59492;45.638;11.714;2023-03-01T07:13:10;101199.40;;;17.30
71649;BMP180;59492;45.638;11.714;2023-03-01T07:15:36;101195.20;;;17.30
71649;BMP180;59492;45.638;11.714;2023-03-01T07:18:02;101198.00;;;17.30
71649;BMP180;59492;45.638;11.714;2023-03-01T07:20:28;101194.20;;;17.30
71649;BMP180;59492;45.638;11.714;2023-03-01T07:22:55;101198.40;;;17.30
71649;BMP180;59492;45.638;11.714;2023-03-01T07:25:24;101192.20;;;17.30
71649;BMP180;59492;45.638;11.714;2023-03-01T07:27:51;101192.00;;;17.30
71649;BMP180;59492;45.638;11.714;2023-03-01T07:30:19;101186.40;;;17.30
71649;BMP180;59492;45.638;11.714;2023-03-01T07:32:48;101187.40;;;17.30
71649;BMP180;59492;45.638;11.714;2023-03-01T07:35:15;101177.60;;;17.40
71649;BMP180;59492;45.638;11.714;2023-03-01T07:37:40;101172.80;;;17.50
71649;BMP180;59492;45.638;11.714;2023-03-01T07:40:07;101164.80;;;17.50
71649;BMP180;59492;45.638;11.714;2023-03-01T07:42:33;101163.00;;;17.50
71649;BMP180;59492;45.638;11.714;2023-03-01T07:44:58;101155.80;;;17.50
71649;BMP180;59492;45.638;11.714;2023-03-01T07:47:24;101156.40;;;17.52
71649;BMP180;59492;45.638;11.714;2023-03-01T07:49:49;101150.60;;;17.52
71649;BMP180;59492;45.638;11.714;2023-03-01T07:52:15;101139.00;;;17.56
71649;BMP180;59492;45.638;11.714;2023-03-01T07:54:46;101147.00;;;17.58
71649;BMP180;59492;45.638;11.714;2023-03-01T07:57:15;101150.20;;;17.60
71649;BMP180;59492;45.638;11.714;2023-03-01T07:59:41;101146.00;;;17.70
71649;BMP180;59492;45.638;11.714;2023-03-01T08:02:09;101140.80;;;17.70
71649;BMP180;59492;45.638;11.714;2023-03-01T08:04:39;101138.20;;;17.70
71649;BMP180;59492;45.638;11.714;2023-03-01T08:07:11;101139.00;;;17.72
71649;BMP180;59492;45.638;11.714;2023-03-01T08:09:38;101137.60;;;17.78
71649;BMP180;59492;45.638;11.714;2023-03-01T08:12:04;101137.00;;;17.78
71649;BMP180;59492;45.638;11.714;2023-03-01T08:14:34;101135.00;;;17.76
71649;BMP180;59492;45.638;11.714;2023-03-01T08:17:00;101130.80;;;17.72
71649;BMP180;59492;45.638;11.714;2023-03-01T08:19:28;101138.20;;;17.72
71649;BMP180;59492;45.638;11.714;2023-03-01T08:21:53;101134.80;;;17.72
71649;BMP180;59492;45.638;11.714;2023-03-01T08:24:19;101136.60;;;17.70
71649;BMP180;59492;45.638;11.714;2023-03-01T08:26:44;101129.00;;;17.70
71649;BMP180;59492;45.638;11.714;2023-03-01T08:29:10;101128.80;;;17.70
71649;BMP180;59492;45.638;11.714;2023-03-01T08:31:39;101123.80;;;17.70
71649;BMP180;59492;45.638;11.714;2023-03-01T08:34:11;101116.40;;;17.70
71649;BMP180;59492;45.638;11.714;2023-03-01T08:36:40;101099.60;;;17.70
71649;BMP180;59492;45.638;11.714;2023-03-01T08:39:07;101089.60;;;17.70
71649;BMP180;59492;45.638;11.714;2023-03-01T08:41:34;101089.80;;;17.70
71649;BMP180;59492;45.638;11.714;2023-03-01T08:43:59;101093.40;;;17.70
71649;BMP180;59492;45.638;11.714;2023-03-01T08:46:27;101088.20;;;17.70
71649;BMP180;59492;45.638;11.714;2023-03-01T08:48:53;101085.40;;;17.70
71649;BMP180;59492;45.638;11.714;2023-03-01T08:51:20;101073.80;;;17.70
71649;BMP180;59492;45.638;11.714;2023-03-01T08:53:46;101078.00;;;17.70
71649;BMP180;59492;45.638;11.714;2023-03-01T08:56:12;101074.80;;;17.70
71649;BMP180;59492;45.638;11.714;2023-03-01T08:58:38;101073.80;;;17.70
71649;BMP180;59492;45.638;11.714;2023-03-01T09:01:09;101070.60;;;17.70
71649;BMP180;59492;45.638;11.714;2023-03-01T09:03:36;101061.40;;;17.70
71649;BMP180;59492;45.638;11.714;2023-03-01T09:06:03;101062.00;;;17.70
71649;BMP180;59492;45.638;11.714;2023-03-01T09:08:29;101056.40;;;17.74
71649;BMP180;59492;45.638;11.714;2023-03-01T09:10:55;101048.80;;;17.74
71649;BMP180;59492;45.638;11.714;2023-03-01T09:13:21;101049.40;;;17.80
71649;BMP180;59492;45.638;11.714;2023-03-01T09:15:50;101050.20;;;17.80
71649;BMP180;59492;45.638;11.714;2023-03-01T09:18:16;101047.60;;;17.80
71649;BMP180;59492;45.638;11.714;2023-03-01T09:20:41;101046.80;;;17.80
71649;BMP180;59492;45.638;11.714;2023-03-01T09:23:07;101046.40;;;17.82
71649;BMP180;59492;45.638;11.714;2023-03-01T09:25:34;101044.80;;;17.90
71649;BMP180;59492;45.638;11.714;2023-03-01T09:28:00;101037.60;;;17.90
71649;BMP180;59492;45.638;11.714;2023-03-01T09:30:25;101029.80;;;18.00
71649;BMP180;59492;45.638;11.714;2023-03-01T09:32:51;101028.00;;;18.10
71649;BMP180;59492;45.638;11.714;2023-03-01T09:35:18;101023.00;;;18.20
71649;BMP180;59492;45.638;11.714;2023-03-01T09:37:45;101019.60;;;18.30
71649;BMP180;59492;45.638;11.714;2023-03-01T09:40:22;101008.60;;;18.38
71649;BMP180;59492;45.638;11.714;2023-03-01T09:42:58;101007.60;;;18.40
71649;BMP180;59492;45.638;11.714;2023-03-01T09:47:55;101000.00;;;18.50
71649;BMP180;59492;45.638;11.714;2023-03-01T09:50:21;100998.00;;;18.52
71649;BMP180;59492;45.638;11.714;2023-03-01T09:52:48;100992.40;;;18.60
71649;BMP180;59492;45.638;11.714;2023-03-01T09:55:26;100993.00;;;18.60
71649;BMP180;59492;45.638;11.714;2023-03-01T09:57:59;100995.20;;;18.60
71649;BMP180;59492;45.638;11.714;2023-03-01T10:00:43;100998.80;;;18.60
71649;BMP180;59492;45.638;11.714;2023-03-01T10:03:20;100994.40;;;18.60
71649;BMP180;59492;45.638;11.714;2023-03-01T10:06:24;101000.60;;;18.70
71649;BMP180;59492;45.638;11.714;2023-03-01T10:09:00;100993.00;;;18.70
71649;BMP180;59492;45.638;11.714;2023-03-01T10:11:41;100995.00;;;18.80
71649;BMP180;59492;45.638;11.714;2023-03-01T10:14:23;100992.80;;;18.90
71649;BMP180;59492;45.638;11.714;2023-03-01T10:17:00;100992.40;;;18.90
71649;BMP180;59492;45.638;11.714;2023-03-01T10:19:46;100989.60;;;18.90
71649;BMP180;59492;45.638;11.714;2023-03-01T10:22:30;100986.00;;;18.90
71649;BMP180;59492;45.638;11.714;2023-03-01T10:24:58;100979.40;;;19.00
71649;BMP180;59492;45.638;11.714;2023-03-01T10:27:56;100979.60;;;19.00
71649;BMP180;59492;45.638;11.714;2023-03-01T10:30:29;100976.60;;;18.96
71649;BMP180;59492;45.638;11.714;2023-03-01T10:32:58;100984.40;;;18.90
71649;BMP180;59492;45.638;11.714;2023-03-01T10:35:27;100983.00;;;18.90
71649;BMP180;59492;45.638;11.714;2023-03-01T10:38:05;100987.80;;;18.90
71649;BMP180;59492;45.638;11.714;2023-03-01T10:40:32;100986.00;;;18.90
71649;BMP180;59492;45.638;11.714;2023-03-01T10:43:01;100968.60;;;18.90
71649;BMP180;59492;45.638;11.714;2023-03-01T10:45:34;100954.00;;;18.90
71649;BMP180;59492;45.638;11.714;2023-03-01T10:48:22;100957.00;;;18.90
71649;BMP180;59492;45.638;11.714;2023-03-01T10:53:35;100977.60;;;18.80
71649;BMP180;59492;45.638;11.714;2023-03-01T10:56:06;100984.80;;;18.70
71649;BMP180;59492;45.638;11.714;2023-03-01T10:58:34;100988.60;;;18.70
71649;BMP180;59492;45.638;11.714;2023-03-01T11:01:05;100995.40;;;18.66
71649;BMP180;59492;45.638;11.714;2023-03-01T11:03:33;100997.60;;;18.60
71649;BMP180;59492;45.638;11.714;2023-03-01T11:08:38;101001.20;;;18.50
71649;BMP180;59492;45.638;11.714;2023-03-01T11:11:10;101007.40;;;18.50
71649;BMP180;59492;45.638;11.714;2023-03-01T11:13:54;101007.00;;;18.40
71649;BMP180;59492;45.638;11.714;2023-03-01T11:16:28;101015.60;;;18.36
71649;BMP180;59492;45.638;11.714;2023-03-01T11:19:00;101029.60;;;18.30
71649;BMP180;59492;45.638;11.714;2023-03-01T11:21:28;101033.80;;;18.30
71649;BMP180;59492;45.638;11.714;2023-03-01T11:23:59;101044.20;;;18.30
71649;BMP180;59492;45.638;11.714;2023-03-01T11:26:27;101044.40;;;18.22
71649;BMP180;59492;45.638;11.714;2023-03-01T11:28:56;101052.60;;;18.20
71649;BMP180;59492;45.638;11.714;2023-03-01T11:31:25;101054.80;;;18.20
71649;BMP180;59492;45.638;11.714;2023-03-01T11:34:05;101060.40;;;18.14
71649;BMP180;59492;45.638;11.714;2023-03-01T11:36:56;101062.00;;;18.10
71649;BMP180;59492;45.638;11.714;2023-03-01T11:39:46;101065.20;;;18.06
71649;BMP180;59492;45.638;11.714;2023-03-01T11:42:20;101078.20;;;18.00
71649;BMP180;59492;45.638;11.714;2023-03-01T11:44:52;101077.80;;;18.00
71649;BMP180;59492;45.638;11.714;2023-03-01T11:53:09;101096.40;;;17.90
71649;BMP180;59492;45.638;11.714;2023-03-01T12:07:20;101101.40;;;17.80
71649;BMP180;59492;45.638;11.714;2023-03-01T12:09:47;101105.00;;;17.80
71649;BMP180;59492;45.638;11.714;2023-03-01T12:13:08;101100.20;;;17.72
71649;BMP180;59492;45.638;11.714;2023-03-01T12:26:46;101090.00;;;17.64
71649;BMP180;59492;45.638;11.714;2023-03-01T12:29:34;101083.00;;;17.60
71649;BMP180;59492;45.638;11.714;2023-03-01T12:35:23;101086.40;;;17.60
71649;BMP180;59492;45.638;11.714;2023-03-01T12:38:00;101082.00;;;17.60
71649;BMP180;59492;45.638;11.714;2023-03-01T12:41:01;101078.80;;;17.60
71649;BMP180;59492;45.638;11.714;2023-03-01T12:44:01;101077.40;;;17.58
71649;BMP180;59492;45.638;11.714;2023-03-01T12:49:30;101075.40;;;17.52
71649;BMP180;59492;45.638;11.714;2023-03-01T12:54:44;101066.20;;;17.50
71649;BMP180;59492;45.638;11.714;2023-03-01T12:57:30;101074.20;;;17.50
71649;BMP180;59492;45.638;11.714;2023-03-01T13:00:28;101070.80;;;17.50
71649;BMP180;59492;45.638;11.714;2023-03-01T13:03:19;101086.40;;;17.50
71649;BMP180;59492;45.638;11.714;2023-03-01T13:11:19;101076.20;;;17.50
71649;BMP180;59492;45.638;11.714;2023-03-01T13:13:47;101073.40;;;17.50
71649;BMP180;59492;45.638;11.714;2023-03-01T13:16:40;101073.20;;;17.50
71649;BMP180;59492;45.638;11.714;2023-03-01T13:19:25;101068.80;;;17.50
71649;BMP180;59492;45.638;11.714;2023-03-01T13:21:53;101079.40;;;17.50
71649;BMP180;59492;45.638;11.714;2023-03-01T13:24:41;101082.20;;;17.50
71649;BMP180;59492;45.638;11.714;2023-03-01T13:29:52;101066.00;;;17.50
71649;BMP180;59492;45.638;11.714;2023-03-01T13:34:52;101066.20;;;17.50
71649;BMP180;59492;45.638;11.714;2023-03-01T13:37:22;101068.80;;;17.50
71649;BMP180;59492;45.638;11.714;2023-03-01T13:39:48;101068.80;;;17.50
71649;BMP180;59492;45.638;11.714;2023-03-01T13:42:35;101064.40;;;17.48
71649;BMP180;59492;45.638;11.714;2023-03-01T13:45:17;101055.60;;;17.40
71649;BMP180;59492;45.638;11.714;2023-03-01T13:47:45;101051.60;;;17.40
71649;BMP180;59492;45.638;11.714;2023-03-01T13:50:25;101046.00;;;17.40
71649;BMP180;59492;45.638;11.714;2023-03-01T13:53:02;101040.00;;;17.40
71649;BMP180;59492;45.638;11.714;2023-03-01T13:55:40;101038.00;;;17.40
71649;BMP180;59492;45.638;11.714;2023-03-01T13:58:30;101038.20;;;17.40
71649;BMP180;59492;45.638;11.714;2023-03-01T14:01:33;101030.00;;;17.40
71649;BMP180;59492;45.638;11.714;2023-03-01T14:04:00;101030.00;;;17.40
71649;BMP180;59492;45.638;11.714;2023-03-01T14:06:33;101026.00;;;17.40
71649;BMP180;59492;45.638;11.714;2023-03-01T14:09:28;101023.60;;;17.40
71649;BMP180;59492;45.638;11.714;2023-03-01T14:15:01;101000.40;;;17.38
71649;BMP180;59492;45.638;11.714;2023-03-01T14:20:24;100998.80;;;17.38
71649;BMP180;59492;45.638;11.714;2023-03-01T14:22:52;100992.60;;;17.36
71649;BMP180;59492;45.638;11.714;2023-03-01T14:27:55;100985.20;;;17.38
71649;BMP180;59492;45.638;11.714;2023-03-01T14:30:27;100979.40;;;17.36
71649;BMP180;59492;45.638;11.714;2023-03-01T14:33:01;100975.20;;;17.34
71649;BMP180;59492;45.638;11.714;2023-03-01T14:35:30;100970.20;;;17.38
71649;BMP180;59492;45.638;11.714;2023-03-01T14:37:57;100960.60;;;17.38
71649;BMP180;59492;45.638;11.714;2023-03-01T14:40:31;100952.00;;;17.36
71649;BMP180;59492;45.638;11.714;2023-03-01T14:43:04;100949.00;;;17.30
71649;BMP180;59492;45.638;11.714;2023-03-01T14:45:34;100940.80;;;17.20
71649;BMP180;59492;45.638;11.714;2023-03-01T14:48:02;100935.20;;;17.30
71649;BMP180;59492;45.638;11.714;2023-03-01T14:50:32;100943.00;;;17.30
71649;BMP180;59492;45.638;11.714;2023-03-01T14:53:21;100943.20;;;17.30
71649;BMP180;59492;45.638;11.714;2023-03-01T14:55:55;100937.60;;;17.30
71649;BMP180;59492;45.638;11.714;2023-03-01T14:58:22;100935.00;;;17.30
71649;BMP180;59492;45.638;11.714;2023-03-01T15:00:56;100936.60;;;17.20
71649;BMP180;59492;45.638;11.714;2023-03-01T15:03:36;100936.20;;;17.22
71649;BMP180;59492;45.638;11.714;2023-03-01T15:06:08;100929.20;;;17.20
71649;BMP180;59492;45.638;11.714;2023-03-01T15:08:37;100928.00;;;17.20
71649;BMP180;59492;45.638;11.714;2023-03-01T15:11:29;100926.40;;;17.24
71649;BMP180;59492;45.638;11.714;2023-03-01T15:13:58;100926.00;;;17.20
71649;BMP180;59492;45.638;11.714;2023-03-01T15:16:27;100925.40;;;17.22
71649;BMP180;59492;45.638;11.714;2023-03-01T15:18:56;100924.60;;;17.22